Time;durP1;ratioP1;P1;durP2;ratioP2;P2;SDS_P1;SDS_P2;PMS_P1;PMS_P2;Temp;Humidity;BMP_temperature;BMP_pressure;BME280_temperature;BME280_humidity;BME280_pressure;Samples;Min_cycle;Max_cycle;Signal;HPM_P1;HPM_P2
2022/04/11 00:00:35;;;;;;;34.33;17.30;;;230.40;2252.80;;;;;;5073350;28;20094;-75
2022/04/11 00:03:01;;;;;;;23.65;15.50;;;230.50;2252.80;;;;;;5073483;28;20024;-77
2022/04/11 00:05:27;;;;;;;21.20;13.52;;;205.70;2252.80;;;;;;5072128;28;20037;-78
2022/04/11 00:07:53;;;;;;;24.52;15.45;;;230.40;2252.80;;;;;;5073525;28;20029;-78
2022/04/11 00:10:18;;;;;;;19.30;13.23;;;230.40;2252.80;;;;;;5073359;28;20052;-81
2022/04/11 00:12:44;;;;;;;20.70;12.27;;;205.70;2252.80;;;;;;5073445;28;20082;-81
2022/04/11 00:15:11;;;;;;;22.02;13.98;;;;;;;;;;5073049;28;20032;-75
2022/04/11 00:17:37;;;;;;;22.23;16.10;;;;;;;;;;5073491;28;20029;-78
2022/04/11 00:20:04;;;;;;;24.92;15.50;;;;;;;;;;5073345;28;20115;-78
2022/04/11 00:22:30;;;;;;;28.13;16.52;;;;;;;;;;5071895;28;20364;-82
2022/04/11 00:24:56;;;;;;;21.77;14.38;;;;;;;;;;5073086;28;20024;-74
2022/04/11 00:27:22;;;;;;;20.35;14.05;;;;;;;;;;5072999;28;20025;-76
2022/04/11 00:29:48;;;;;;;20.58;13.93;;;;;;;;;;5072598;28;20111;-74
2022/04/11 00:32:15;;;;;;;19.95;13.20;;;;;;;;;;5072960;28;20016;-75
2022/04/11 00:34:41;;;;;;;19.27;11.27;;;;;;;;;;5072968;28;20036;-75
2022/04/11 00:37:07;;;;;;;16.55;10.00;;;;;;;;;;5072995;28;20177;-75
2022/04/11 00:39:33;;;;;;;13.98;9.43;;;;;;;;;;5072420;28;20036;-73
2022/04/11 00:42:06;;;;;;;14.85;9.25;;;;;;;;;;5072587;28;20024;-74
2022/04/11 00:44:32;;;;;;;15.65;9.05;;;205.60;2252.80;;;;;;5071449;28;20401;-76
2022/04/11 00:46:58;;;;;;;13.20;8.40;;;205.60;2252.80;;;;;;5071356;28;20139;-79
2022/04/11 00:49:23;;;;;;;13.27;8.63;;;205.50;2252.80;;;;;;5064942;28;20063;-74
2022/04/11 00:51:49;;;;;;;13.00;8.55;;;205.40;2252.80;;;;;;5037905;28;20031;-77
2022/04/11 00:54:15;;;;;;;14.15;9.32;;;205.50;2252.80;;;;;;5063791;28;20033;-77
2022/04/11 00:56:41;;;;;;;17.20;9.23;;;205.60;2252.80;;;;;;5053175;28;20047;-82
2022/04/11 00:59:07;;;;;;;16.50;10.65;;;;;;;;;;5052525;28;20064;-76
2022/04/11 01:01:33;;;;;;;11.45;8.50;;;;;;;;;;5052079;28;20017;-75
2022/04/11 01:03:59;;;;;;;14.30;8.90;;;;;;;;;;5052328;28;20021;-76
2022/04/11 01:06:26;;;;;;;11.88;8.18;;;;;;;;;;5052350;28;20025;-75
2022/04/11 01:08:52;;;;;;;11.55;7.65;;;;;;;;;;5034057;28;20407;-76
2022/04/11 01:11:20;;;;;;;12.25;7.90;;;;;;;;;;5052144;28;20021;-76
2022/04/11 01:13:46;;;;;;;10.25;6.95;;;;;;;;;;5052263;28;20032;-74
2022/04/11 01:16:12;;;;;;;12.10;6.60;;;;;;;;;;5052308;28;20023;-75
2022/04/11 01:18:39;;;;;;;11.70;6.95;;;;;;;;;;5052416;28;20100;-74
2022/04/11 01:21:07;;;;;;;14.77;7.78;;;;;;;;;;5052035;28;20021;-73
2022/04/11 01:23:33;;;;;;;13.48;7.70;;;;;;;;;;5071317;28;20140;-74
2022/04/11 01:25:59;;;;;;;21.13;12.40;;;;;;;;;;5072128;28;20031;-73
2022/04/11 01:28:26;;;;;;;18.77;10.48;;;;;;;;;;5072196;28;20103;-73
2022/04/11 01:30:53;;;;;;;17.20;10.30;;;;;;;;;;5072097;28;20017;-75
2022/04/11 01:33:24;;;;;;;18.75;11.57;;;;;;;;;;5070605;28;20364;-76
2022/04/11 01:35:50;;;;;;;17.20;9.57;;;;;;;;;;5072182;28;20032;-75
2022/04/11 01:38:17;;;;;;;17.08;10.68;;;;;;;;;;5071886;28;20031;-75
2022/04/11 01:40:53;;;;;;;15.68;11.13;;;;;;;;;;5071996;28;20070;-77
2022/04/11 01:43:19;;;;;;;20.02;10.95;;;;;;;;;;5075864;28;20021;-78
2022/04/11 01:45:45;;;;;;;38.10;12.38;;;;;;;;;;5076040;28;20025;-78
2022/04/11 01:48:11;;;;;;;15.98;9.07;;;;;;;;;;5076011;28;20048;-77
2022/04/11 01:50:38;;;;;;;14.48;8.65;;;;;;;;;;5075874;28;20025;-76
2022/04/11 01:53:11;;;;;;;14.23;8.48;;;;;;;;;;5075532;28;20166;-74
2022/04/11 01:55:37;;;;;;;14.30;8.23;;;;;;;;;;5075860;28;20042;-76
2022/04/11 01:58:04;;;;;;;14.40;7.70;;;;;;;;;;5075681;28;20487;-75
2022/04/11 02:00:31;;;;;;;18.52;9.73;;;;;;;;;;5075752;28;20061;-75
2022/04/11 02:02:58;;;;;;;13.55;9.15;;;;;;;;;;5075331;28;20510;-74
2022/04/11 02:05:25;;;;;;;16.60;10.07;;;;;;;;;;5075862;28;20029;-75
2022/04/11 02:07:51;;;;;;;17.55;12.00;;;;;;;;;;5075588;28;20477;-74
2022/04/11 02:10:17;;;;;;;12.10;9.90;;;;;;;;;;5075336;28;20060;-75
2022/04/11 02:12:43;;;;;;;13.05;10.30;;;;;;;;;;5075656;28;20100;-73
2022/04/11 02:15:10;;;;;;;16.05;9.32;;;;;;;;;;5075830;28;20028;-72
2022/04/11 02:17:36;;;;;;;12.68;8.73;;;;;;;;;;5075452;28;20468;-75
2022/04/11 02:20:04;;;;;;;13.98;8.88;;;;;;;;;;5075450;28;20027;-80
2022/04/11 02:22:42;;;;;;;12.60;8.18;;;;;;;;;;5075822;28;20463;-77
2022/04/11 02:25:08;;;;;;;17.30;9.95;;;;;;;;;;5075759;28;20036;-80
2022/04/11 02:27:34;;;;;;;12.73;7.78;;;;;;;;;;5075661;28;20020;-80
2022/04/11 02:30:00;;;;;;;14.43;8.73;;;;;;;;;;5075252;28;20077;-73
2022/04/11 02:32:26;;;;;;;18.17;8.95;;;;;;;;;;5074970;28;20028;-73
2022/04/11 02:34:52;;;;;;;14.65;8.38;;;;;;;;;;5074837;28;20037;-73
2022/04/11 02:37:18;;;;;;;14.30;8.30;;;;;;;;;;5075066;28;20413;-73
2022/04/11 02:39:45;;;;;;;16.50;8.75;;;;;;;;;;5075246;28;20064;-73
2022/04/11 02:42:11;;;;;;;20.35;9.73;;;;;;;;;;5074722;28;20051;-73
2022/04/11 02:44:37;;;;;;;14.85;8.07;;;;;;;;;;5074783;28;20228;-73
2022/04/11 02:47:03;;;;;;;12.15;8.13;;;;;;;;;;5075055;28;20028;-74
2022/04/11 02:49:29;;;;;;;16.00;8.68;;;;;;;;;;5074679;28;20382;-73
2022/04/11 02:51:55;;;;;;;11.85;8.20;;;;;;;;;;5074507;28;20115;-73
2022/04/11 02:54:21;;;;;;;19.50;10.27;;;;;;;;;;5073916;28;20059;-73
2022/04/11 02:56:47;;;;;;;25.10;16.20;;;;;;;;;;5074723;28;20029;-71
2022/04/11 02:59:13;;;;;;;15.02;10.25;;;;;;;;;;5074545;28;20048;-73
2022/04/11 03:01:39;;;;;;;12.95;7.65;;;;;;;;;;5074615;28;20024;-73
2022/04/11 03:04:06;;;;;;;12.13;7.93;;;;;;;;;;5074543;28;20029;-73
2022/04/11 03:06:32;;;;;;;14.32;7.90;;;;;;;;;;5074632;28;20612;-73
2022/04/11 03:08:59;;;;;;;10.57;7.05;;;;;;;;;;5074222;28;20585;-73
2022/04/11 03:11:25;;;;;;;11.35;6.88;;;;;;;;;;5074695;28;20055;-73
2022/04/11 03:13:51;;;;;;;12.00;7.15;;;;;;;;;;5074319;28;20475;-73
2022/04/11 03:16:17;;;;;;;11.30;7.38;;;;;;;;;;5074059;28;20056;-73
2022/04/11 03:18:43;;;;;;;14.05;7.38;;;;;;;;;;5074016;28;20025;-73
2022/04/11 03:21:09;;;;;;;10.43;6.78;;;;;;;;;;5074110;28;20048;-73
2022/04/11 03:23:35;;;;;;;11.98;7.38;;;;;;;;;;5073879;28;20035;-73
2022/04/11 03:26:01;;;;;;;11.30;6.97;;;;;;;;;;5074075;28;20099;-74
2022/04/11 03:28:27;;;;;;;12.65;6.93;;;;;;;;;;5074072;28;20036;-74
2022/04/11 03:30:53;;;;;;;14.20;7.88;;;;;;;;;;5073883;28;20017;-74
2022/04/11 03:33:19;;;;;;;14.95;7.78;;;;;;;;;;5073792;28;20061;-74
2022/04/11 03:35:45;;;;;;;15.48;8.88;;;;;;;;;;5073942;28;20024;-71
2022/04/11 03:38:11;;;;;;;17.67;8.80;;;;;;;;;;5073776;28;20048;-75
2022/04/11 03:40:37;;;;;;;18.33;9.43;;;;;;;;;;5073909;28;20517;-77
2022/04/11 03:43:04;;;;;;;12.15;8.48;;;;;;;;;;5073628;28;20421;-73
2022/04/11 03:45:30;;;;;;;14.38;7.47;;;;;;;;;;5073804;28;20039;-76
2022/04/11 03:47:56;;;;;;;14.93;8.13;;;;;;;;;;5068818;28;20021;-75
2022/04/11 03:50:22;;;;;;;13.60;8.63;;;;;;;;;;5035689;28;20061;-77
2022/04/11 03:52:48;;;;;;;26.75;13.75;;;;;;;;;;5065745;28;20024;-76
2022/04/11 03:55:14;;;;;;;21.30;13.02;;;;;;;;;;5073683;28;20025;-75
2022/04/11 03:57:40;;;;;;;23.58;13.82;;;;;;;;;;5073786;28;20562;-75
2022/04/11 04:00:06;;;;;;;28.13;13.73;;;;;;;;;;5073421;28;20051;-75
2022/04/11 04:02:32;;;;;;;20.23;12.13;;;;;;;;;;5073371;28;20024;-73
2022/04/11 04:04:58;;;;;;;33.65;14.00;;;;;;;;;;5073119;28;20029;-73
2022/04/11 04:07:25;;;;;;;35.40;16.13;;;;;;;;;;5073605;28;20029;-73
2022/04/11 04:09:51;;;;;;;26.25;15.43;;;;;;;;;;5073298;28;20182;-73
2022/04/11 04:12:21;;;;;;;31.55;16.95;;;;;;;;;;5075250;28;20035;-74
2022/04/11 04:14:47;;;;;;;30.55;14.20;;;;;;;;;;5073262;28;20036;-72
2022/04/11 04:17:13;;;;;;;23.15;12.90;;;;;;;;;;5073323;28;20020;-75
2022/04/11 04:19:39;;;;;;;25.98;14.90;;;;;;;;;;5073274;28;20016;-75
2022/04/11 04:22:05;;;;;;;29.42;15.15;;;;;;;;;;5072956;28;20028;-75
2022/04/11 04:24:34;;;;;;;25.42;14.18;;;;;;;;;;5073182;28;20771;-74
2022/04/11 04:27:01;;;;;;;26.08;14.10;;;;;;;;;;5073135;28;20466;-74
2022/04/11 04:29:27;;;;;;;21.60;14.10;;;;;;;;;;5073199;28;20074;-74
2022/04/11 04:31:54;;;;;;;28.08;18.27;;;;;;;;;;5073196;28;20383;-74
2022/04/11 04:34:20;;;;;;;30.67;18.02;;;;;;;;;;5072939;28;20040;-74
2022/04/11 04:36:47;;;;;;;31.10;17.13;;;;;;;;;;5072922;28;20017;-74
2022/04/11 04:39:13;;;;;;;31.52;17.85;;;;;;;;;;5072769;28;20036;-74
2022/04/11 04:41:39;;;;;;;27.90;16.45;;;;;;;;;;5070193;28;20552;-74
2022/04/11 04:44:08;;;;;;;29.90;16.98;;;;;;;;;;5052434;28;20482;-75
2022/04/11 04:46:35;;;;;;;33.22;19.70;;;;;;;;;;5052539;28;20021;-73
2022/04/11 04:49:01;;;;;;;43.13;22.77;;;;;;;;;;5052339;28;20644;-73
2022/04/11 04:51:27;;;;;;;32.72;19.10;;;;;;;;;;5053088;28;20043;-73
2022/04/11 04:53:53;;;;;;;33.13;17.67;;;;;;;;;;5072527;28;20036;-75
2022/04/11 04:56:19;;;;;;;20.63;13.77;;;;;;;;;;5072400;28;20079;-73
2022/04/11 04:58:46;;;;;;;20.13;14.40;;;;;;;;;;5072228;28;20386;-72
2022/04/11 05:01:12;;;;;;;28.38;15.73;;;;;;;;;;5072261;28;20035;-73
2022/04/11 05:03:38;;;;;;;31.52;17.45;;;;;;;;;;5072194;28;20025;-74
2022/04/11 05:06:04;;;;;;;36.25;20.85;;;;;;;;;;5072108;28;20016;-73
2022/04/11 05:08:31;;;;;;;33.33;20.27;;;;;;;;;;5071964;28;20105;-73
2022/04/11 05:10:57;;;;;;;36.95;20.67;;;;;;;;;;5072217;28;20025;-73
2022/04/11 05:13:23;;;;;;;42.72;21.55;;;;;;;;;;5071925;28;20039;-73
2022/04/11 05:15:49;;;;;;;44.20;23.25;;;;;;;;;;5071829;28;20020;-73
2022/04/11 05:18:15;;;;;;;38.67;23.15;;;;;;;;;;5072108;28;20023;-74
2022/04/11 05:20:42;;;;;;;27.45;17.75;;;;;;;;;;5071926;28;20555;-74
2022/04/11 05:23:08;;;;;;;24.50;13.43;;;;;;;;;;5071801;28;20089;-76
2022/04/11 05:25:34;;;;;;;26.23;11.98;;;;;;;;;;5072153;28;20020;-76
2022/04/11 05:28:00;;;;;;;20.30;11.30;;;;;;;;;;5072248;28;20024;-75
2022/04/11 05:30:26;;;;;;;24.38;13.40;;;;;;;;;;5067301;28;20021;-71
2022/04/11 05:32:52;;;;;;;19.92;11.25;;;;;;;;;;5054394;28;20013;-71
2022/04/11 05:35:18;;;;;;;12.23;8.90;;;;;;;;;;5051376;28;20029;-72
2022/04/11 05:37:44;;;;;;;13.43;7.50;;;;;;;;;;5057890;28;20040;-72
2022/04/11 05:40:12;;;;;;;16.80;8.15;;;;;;;;;;5049674;28;20408;-71
2022/04/11 05:42:39;;;;;;;25.20;8.52;;;;;;;;;;5057976;28;20031;-71
2022/04/11 05:45:05;;;;;;;18.95;10.10;;;;;;;;;;5053782;28;20387;-73
2022/04/11 05:47:31;;;;;;;15.95;10.57;;;;;;;;;;5071512;28;20048;-74
2022/04/11 05:49:57;;;;;;;13.43;7.40;;;;;;;;;;5071651;28;20154;-74
2022/04/11 05:52:23;;;;;;;14.13;8.35;;;;;;;;;;5071353;28;20020;-74
2022/04/11 05:54:49;;;;;;;22.48;11.27;;;;;;;;;;5071566;28;20064;-73
2022/04/11 05:57:16;;;;;;;13.75;7.80;;;;;;;;;;5071687;28;20067;-73
2022/04/11 05:59:42;;;;;;;12.82;5.95;;;;;;;;;;5071599;28;20429;-73
2022/04/11 06:02:11;;;;;;;12.35;7.72;;;;;;;;;;5071557;28;20464;-73
2022/04/11 06:04:38;;;;;;;10.88;6.20;;;;;;;;;;5071680;28;20456;-72
2022/04/11 06:07:04;;;;;;;19.45;9.00;;;;;;;;;;5071713;28;20028;-72
2022/04/11 06:09:31;;;;;;;15.18;6.53;;;;;;;;;;5071058;28;20064;-72
2022/04/11 06:11:57;;;;;;;12.07;6.60;;;;;;;;;;5071402;28;20154;-71
2022/04/11 06:14:23;;;;;;;7.95;5.18;;;;;;;;;;5071333;28;20040;-73
2022/04/11 06:16:49;;;;;;;14.05;6.95;;;;;;;;;;5071534;28;20107;-73
2022/04/11 06:19:17;;;;;;;16.05;6.93;;;;;;;;;;5071334;28;20031;-73
2022/04/11 06:21:43;;;;;;;16.65;6.63;;;;;;;;;;5071298;28;20074;-73
2022/04/11 06:24:09;;;;;;;11.90;6.05;;;;;;;;;;5071486;28;20020;-73
2022/04/11 06:26:36;;;;;;;9.27;5.68;;;;;;;;;;5071359;28;20024;-73
2022/04/11 06:29:02;;;;;;;14.43;5.82;;;;;;;;;;5072673;28;20070;-73
2022/04/11 06:31:28;;;;;;;11.50;6.80;;;;;;;;;;5074874;28;20111;-73
2022/04/11 06:33:54;;;;;;;12.48;7.70;;;;;;;;;;5074893;28;20033;-73
2022/04/11 06:36:20;;;;;;;8.90;5.32;;;;;;;;;;5075098;28;20044;-73
2022/04/11 06:38:46;;;;;;;12.10;5.20;;;;;;;;;;5075191;28;20078;-73
2022/04/11 06:41:12;;;;;;;11.70;5.10;;;;;;;;;;5074925;28;20379;-73
2022/04/11 06:43:38;;;;;;;10.77;7.00;;;;;;;;;;5074677;28;20050;-72
2022/04/11 06:46:04;;;;;;;12.70;7.40;;;;;;;;;;5074641;28;20050;-72
2022/04/11 06:48:30;;;;;;;8.65;6.25;;;;;;;;;;5074567;28;20391;-73
2022/04/11 06:50:57;;;;;;;14.32;8.30;;;;;;;;;;5074395;28;20028;-72
2022/04/11 06:53:23;;;;;;;14.50;8.40;;;;;;;;;;5074193;28;20033;-73
2022/04/11 06:55:49;;;;;;;12.45;6.03;;;;;;;;;;5074441;28;20020;-73
2022/04/11 06:58:16;;;;;;;10.50;6.57;;;;;;;;;;5074513;28;20043;-72
2022/04/11 07:00:42;;;;;;;8.55;5.10;;;;;;;;;;5074307;28;20427;-73
2022/04/11 07:03:09;;;;;;;10.40;5.60;;;;;;;;;;5074275;28;20020;-73
2022/04/11 07:05:35;;;;;;;11.15;5.15;;;;;;;;;;5074135;28;20024;-72
2022/04/11 07:08:01;;;;;;;9.10;4.72;;;;;;;;;;5074209;28;20031;-74
2022/04/11 07:10:27;;;;;;;7.72;5.13;;;;;;;;;;5054572;28;20384;-74
2022/04/11 07:12:53;;;;;;;11.15;6.25;;;;;;;;;;5054113;28;20071;-74
2022/04/11 07:15:19;;;;;;;9.18;5.40;;;;;;;;;;5053983;28;20029;-73
2022/04/11 07:17:45;;;;;;;8.60;5.22;;;;;;;;;;5054005;28;20021;-73
2022/04/11 07:20:12;;;;;;;8.77;5.18;;;;;;;;;;5053718;28;20029;-73
2022/04/11 07:22:38;;;;;;;8.52;5.80;;;;;;;;;;5053980;28;20027;-73
2022/04/11 07:25:04;;;;;;;12.85;4.93;;;;;;;;;;5053855;28;20021;-73
2022/04/11 07:27:30;;;;;;;9.93;4.93;;;;;;;;;;5053996;28;20021;-73
2022/04/11 07:29:57;;;;;;;12.18;5.22;;;;;;;;;;5054284;28;20025;-72
2022/04/11 07:32:23;;;;;;;15.52;6.15;;;;;;;;;;5054087;28;20032;-73
2022/04/11 07:34:49;;;;;;;18.42;5.78;;;;;;;;;;5053963;28;20513;-73
2022/04/11 07:37:15;;;;;;;13.65;4.38;;;;;;;;;;5054085;28;20025;-74
2022/04/11 07:39:41;;;;;;;10.05;3.75;;;;;;;;;;5053803;28;20083;-72
2022/04/11 07:42:07;;;;;;;10.98;5.10;;;;;;;;;;5054126;28;20498;-73
2022/04/11 07:44:33;;;;;;;9.18;6.22;;;;;;;;;;5053709;28;20111;-72
2022/04/11 07:46:59;;;;;;;10.63;5.57;;;;;;;;;;5052323;28;20116;-73
2022/04/11 07:49:25;;;;;;;9.77;7.07;;;;;;;;;;5053835;28;20104;-72
2022/04/11 07:51:51;;;;;;;11.00;5.20;;;;;;;;;;5053300;28;20047;-72
2022/04/11 07:54:17;;;;;;;10.75;5.50;;;;;;;;;;5052333;28;20419;-72
2022/04/11 07:56:43;;;;;;;12.38;6.10;;;;;;;;;;5053637;28;20044;-73
2022/04/11 07:59:09;;;;;;;13.45;4.88;;;;;;;;;;5052374;28;20017;-72
2022/04/11 08:01:35;;;;;;;5.35;3.83;;;;;;;;;;5053330;28;20017;-73
2022/04/11 08:04:01;;;;;;;10.02;5.25;;;;;;;;;;5053502;28;20499;-73
2022/04/11 08:06:28;;;;;;;10.45;4.70;;;;;;;;;;5053329;28;20487;-73
2022/04/11 08:08:54;;;;;;;9.20;5.35;;;;;;;;;;5060180;28;20064;-72
2022/04/11 08:11:20;;;;;;;6.55;4.40;;;;;;;;;;5073290;28;20106;-72
2022/04/11 08:13:46;;;;;;;18.67;4.53;;;;;;;;;;5073198;28;20066;-73
2022/04/11 08:16:13;;;;;;;31.10;10.13;;;;;;;;;;5072990;28;20024;-73
2022/04/11 08:18:39;;;;;;;19.17;6.43;;;;;;;;;;5073186;28;20355;-72
2022/04/11 08:21:05;;;;;;;8.82;5.70;;;;;;;;;;5071589;28;20021;-72
2022/04/11 08:23:31;;;;;;;18.85;7.07;;;359.20;1561.60;;;;;;5073066;28;20028;-73
2022/04/11 08:25:57;;;;;;;12.98;6.70;;;359.20;1536.00;;;;;;5073030;28;20395;-73
2022/04/11 08:28:24;;;;;;;11.63;4.00;;;359.30;1536.00;;;;;;5072980;28;20012;-73
2022/04/11 08:30:50;;;;;;;9.80;3.95;;;;;;;;;;5072636;28;20021;-72
2022/04/11 08:33:17;;;;;;;8.85;4.00;;;;;;;;;;5072777;28;20616;-73
2022/04/11 08:35:43;;;;;;;7.13;3.80;;;;;;;;;;5072636;28;20048;-72
2022/04/11 08:38:09;;;;;;;19.42;5.85;;;;;;;;;;5072493;28;20360;-73
2022/04/11 08:40:35;;;;;;;11.27;6.38;;;;;;;;;;5072666;28;20429;-73
2022/04/11 08:43:02;;;;;;;12.82;6.35;;;;;;;;;;5072292;28;20147;-72
2022/04/11 08:45:29;;;;;;;8.60;5.25;;;384.60;1638.40;;;;;;5072256;28;20078;-72
2022/04/11 08:47:56;;;;;;;4.90;3.58;;;;;;;;;;5072418;28;20060;-73
2022/04/11 08:50:24;;;;;;;7.28;4.32;;;;;;;;;;5072355;28;20028;-72
2022/04/11 08:52:50;;;;;;;10.65;5.32;;;;;;;;;;5071393;28;20081;-72
2022/04/11 08:55:17;;;;;;;4.93;3.40;;;;;;;;;;5072504;28;20035;-73
2022/04/11 08:57:43;;;;;;;10.98;7.00;;;;;;;;;;5072427;28;20017;-74
2022/04/11 09:00:10;;;;;;;18.75;12.13;;;;;;;;;;5072207;28;20070;-72
2022/04/11 09:02:37;;;;;;;65.90;36.22;;;;;;;;;;5072075;28;20078;-72
2022/04/11 09:05:03;;;;;;;41.35;31.70;;;;;;;;;;5072102;28;20580;-72
2022/04/11 09:07:50;;;;;;;50.55;41.15;;;;;;;;;;5072190;28;20021;-72
2022/04/11 09:10:37;;;;;;;25.00;22.38;;;;;;;;;;5029684;28;20096;-72
2022/04/11 09:13:07;;;;;;;18.58;14.40;;;;;;;;;;5029726;28;20045;-72
2022/04/11 09:15:42;;;;;;;13.40;11.98;;;;;;;;;;5029987;28;20118;-72
2022/04/11 09:18:08;;;;;;;15.25;11.25;;;;;;;;;;5029786;28;20169;-72
2022/04/11 09:20:34;;;;;;;25.35;12.50;;;;;;;;;;5029792;28;20467;-72
2022/04/11 09:23:00;;;;;;;14.35;8.85;;;435.80;1203.20;;;;;;5029597;28;20029;-72
2022/04/11 09:25:30;;;;;;;13.80;9.95;;;;;;;;;;5029705;28;20120;-72
2022/04/11 09:28:10;;;;;;;19.45;10.20;;;;;;;;;;5030054;28;20116;-72
2022/04/11 09:30:37;;;;;;;16.50;8.82;;;;;;;;;;5030240;28;20442;-73
2022/04/11 09:33:05;;;;;;;17.20;10.65;;;;;;;;;;5030038;28;20032;-72
2022/04/11 09:35:38;;;;;;;12.18;8.80;;;;;;;;;;5030002;28;20044;-73
2022/04/11 09:38:23;;;;;;;26.48;23.70;;;;;;;;;;5029896;28;20021;-73
2022/04/11 09:40:56;;;;;;;23.08;12.10;;;;;;;;;;5030095;28;20049;-72
2022/04/11 09:43:28;;;;;;;13.48;7.78;;;;;;;;;;5030085;28;20026;-72
2022/04/11 09:45:54;;;;;;;13.18;11.77;;;;;;;;;;5030174;28;20041;-73
2022/04/11 09:48:32;;;;;;;22.30;15.23;;;;;;;;;;5068244;28;20033;-73
2022/04/11 09:50:59;;;;;;;13.40;9.20;;;;;;;;;;5071760;28;20553;-72
2022/04/11 09:53:30;;;;;;;13.93;6.78;;;;;;;;;;5071853;28;20044;-72
2022/04/11 09:55:56;;;;;;;16.25;11.88;;;512.70;1100.80;;;;;;5072381;28;20052;-73
2022/04/11 09:58:24;;;;;;;13.25;6.70;;;;;;;;;;5072090;28;20049;-72
2022/04/11 10:00:52;;;;;;;7.10;4.10;;;;;;;;;;5071594;28;20482;-73
2022/04/11 10:03:22;;;;;;;17.80;11.13;;;;;;;;;;5073639;28;20030;-73
2022/04/11 10:05:49;;;;;;;20.58;13.10;;;;;;;;;;5075406;28;20026;-73
2022/04/11 10:08:15;;;;;;;33.70;22.23;;;;;;;;;;5074950;28;20012;-73
2022/04/11 10:10:41;;;;;;;36.45;25.05;;;;;;;;;;5075215;28;20028;-74
2022/04/11 10:13:10;;;;;;;30.48;22.33;;;589.00;921.60;;;;;;5075149;28;20387;-75
2022/04/11 10:15:37;;;;;;;78.47;70.43;;;;;;;;;;5075292;28;20149;-73
2022/04/11 10:18:04;;;;;;;52.25;41.35;;;;;;;;;;5075094;28;20016;-71
2022/04/11 10:20:31;;;;;;;19.33;11.10;;;;;;;;;;5075084;28;20101;-72
2022/04/11 10:23:20;;;;;;;10.27;5.85;;;;;;;;;;5074829;28;20024;-73
2022/04/11 10:25:48;;;;;;;14.48;6.65;;;665.60;819.20;;;;;;5032789;28;20064;-72
2022/04/11 10:28:19;;;;;;;7.25;6.10;;;;;;;;;;5032741;28;20026;-72
2022/04/11 10:30:46;;;;;;;15.10;7.07;;;;;;;;;;5032574;28;20543;-73
2022/04/11 10:33:12;;;;;;;12.95;7.60;;;;;;;;;;5032601;28;20546;-72
2022/04/11 10:35:45;;;;;;;11.30;8.48;;;;;;;;;;5032598;28;20119;-73
2022/04/11 10:38:12;;;;;;;21.83;10.25;;;;;;;;;;5015940;28;20045;-72
2022/04/11 10:40:46;;;;;;;5.65;4.13;;;691.80;768.00;;;;;;5032562;28;20076;-73
2022/04/11 10:43:12;;;;;;;7.38;5.35;;;;;;;;;;5015822;28;20114;-72
2022/04/11 10:45:40;;;;;;;4.00;3.40;;;;;;;;;;5032415;28;20025;-72
2022/04/11 10:48:07;;;;;;;12.35;6.68;;;;;;;;;;5032544;28;20500;-72
2022/04/11 10:50:34;;;;;;;11.48;4.70;;;;;;;;;;5032440;28;20104;-72
2022/04/11 10:53:07;;;;;;;11.43;5.15;;;;;;;;;;5032002;28;20025;-73
2022/04/11 10:55:33;;;;;;;12.98;7.88;;;;;;;;;;5032762;28;20520;-72
2022/04/11 10:58:00;;;;;;;16.50;8.43;;;;;;;;;;5032620;28;20168;-73
2022/04/11 11:00:30;;;;;;;10.15;6.20;;;;;;;;;;5032160;28;20026;-73
2022/04/11 11:02:57;;;;;;;13.95;6.78;;;;;;;;;;5056484;28;20036;-74
2022/04/11 11:05:24;;;;;;;16.00;6.07;;;;;;;;;;5073001;28;20525;-73
2022/04/11 11:08:10;;;;;;;21.13;13.00;;;461.50;1049.60;;;;;;5074524;28;20459;-73
2022/04/11 11:10:41;;;;;;;14.02;7.25;;;461.20;1075.20;;;;;;5073985;28;20047;-75
2022/04/11 11:13:35;;;;;;;11.23;7.30;;;461.10;1075.20;;;;;;5074122;28;20086;-76
2022/04/11 11:16:04;;;;;;;14.23;7.75;;;;;;;;;;5073249;28;20021;-74
2022/04/11 11:18:50;;;;;;;12.38;6.28;;;;;;;;;;5074049;28;20391;-74
2022/04/11 11:21:22;;;;;;;16.73;5.07;;;;;;;;;;5073940;28;20017;-74
2022/04/11 11:24:04;;;;;;;13.18;5.20;;;;;;;;;;5073745;28;20031;-71
2022/04/11 11:26:39;;;;;;;7.15;4.85;;;;;;;;;;5073790;28;20021;-72
2022/04/11 11:29:19;;;;;;;6.50;3.95;;;;;;;;;;5074027;28;20032;-72
2022/04/11 11:31:47;;;;;;;9.02;4.18;;;;;;;;;;5073884;28;20028;-74
2022/04/11 11:34:17;;;;;;;7.78;7.00;;;;;;;;;;5073683;28;20483;-74
2022/04/11 11:36:44;;;;;;;13.27;4.38;;;;;;;;;;5073643;28;20459;-72
2022/04/11 11:39:13;;;;;;;9.02;6.25;;;;;;;;;;5073816;28;20422;-71
2022/04/11 11:41:42;;;;;;;8.43;6.25;;;;;;;;;;5073529;28;20028;-74
2022/04/11 11:44:09;;;;;;;10.18;7.15;;;;;;;;;;5073382;28;20375;-71
2022/04/11 11:46:48;;;;;;;13.70;9.05;;;;;;;;;;5073394;28;20147;-72
2022/04/11 11:49:14;;;;;;;12.52;7.45;;;;;;;;;;5073542;28;20056;-72
2022/04/11 11:51:40;;;;;;;13.70;9.25;;;;;;;;;;5073253;28;20021;-72
2022/04/11 11:54:06;;;;;;;21.90;12.48;;;;;;;;;;5072076;28;20559;-72
2022/04/11 11:56:39;;;;;;;10.07;6.25;;;;;;;;;;5073610;28;20585;-72
2022/04/11 11:59:05;;;;;;;13.40;9.10;;;;;;;;;;5073662;28;20108;-72
2022/04/11 12:01:31;;;;;;;26.20;14.30;;;;;;;;;;5073546;28;20028;-72
2022/04/11 12:06:42;;;;;;;5.55;4.70;;;;;;;;;;5073573;28;20403;-73
2022/04/11 12:09:08;;;;;;;6.80;5.18;;;;;;;;;;5073002;28;20048;-72
2022/04/11 12:11:35;;;;;;;8.15;5.90;;;;;;;;;;5073176;28;20031;-72
2022/04/11 12:14:01;;;;;;;10.48;7.18;;;;;;;;;;5073255;28;20043;-72
2022/04/11 12:16:29;;;;;;;15.50;7.90;;;;;;;;;;5073287;28;20035;-71
2022/04/11 12:18:58;;;;;;;10.90;6.32;;;512.20;947.20;;;;;;5073060;28;20032;-71
2022/04/11 12:21:34;;;;;;;11.77;7.75;;;;;;;;;;5072892;28;20536;-70
2022/04/11 12:24:01;;;;;;;10.05;6.93;;;;;;;;;;5072803;28;20033;-74
2022/04/11 12:26:37;;;;;;;10.30;6.85;;;;;;;;;;5072632;28;20036;-72
2022/04/11 12:29:10;;;;;;;7.13;3.55;;;;;;;;;;5072740;28;20032;-72
2022/04/11 12:31:37;;;;;;;8.07;3.85;;;;;;;;;;5072699;28;20071;-72
2022/04/11 12:34:11;;;;;;;7.25;4.93;;;;;;;;;;5072459;28;20067;-72
2022/04/11 12:36:37;;;;;;;9.40;6.90;;;;;;;;;;5070906;28;20025;-72
2022/04/11 12:39:13;;;;;;;15.98;6.63;;;;;;;;;;5072511;28;20032;-72
2022/04/11 12:41:48;;;;;;;9.88;5.72;;;;;;;;;;5072434;28;20024;-72
2022/04/11 12:44:16;;;;;;;9.35;6.20;;;;;;;;;;5072442;28;20058;-72
2022/04/11 12:46:42;;;;;;;7.78;4.70;;;;;;;;;;5072305;28;20496;-72
2022/04/11 12:49:10;;;;;;;12.95;6.95;;;512.50;896.00;;;;;;5072195;28;20030;-73
2022/04/11 12:51:36;;;;;;;7.28;5.30;;;;;;;;;;5071996;28;20024;-72
2022/04/11 12:54:06;;;;;;;7.03;4.68;;;;;;;;;;5072365;28;20085;-72
2022/04/11 12:56:36;;;;;;;11.00;7.60;;;;;;;;;;5072033;28;20459;-72
2022/04/11 12:59:03;;;;;;;17.98;9.68;;;;;;;;;;5072116;28;20025;-72
2022/04/11 13:01:48;;;;;;;14.82;8.60;;;;;;;;;;5072050;28;20027;-72
2022/04/11 13:04:14;;;;;;;8.05;6.30;;;;;;;;;;5072123;28;20028;-72
2022/04/11 13:06:40;;;;;;;14.10;11.43;;;;;;;;;;5072079;28;20099;-72
2022/04/11 13:09:07;;;;;;;11.38;8.90;;;;;;;;;;5071662;28;20060;-72
2022/04/11 13:11:40;;;;;;;9.60;6.18;;;;;;;;;;5072217;28;20028;-73
2022/04/11 13:14:06;;;;;;;9.23;6.00;;;;;;;;;;5072119;28;20037;-72
2022/04/11 13:19:17;;;;;;;13.50;9.00;;;;;;;;;;5072232;28;20445;-72
2022/04/11 13:21:43;;;;;;;8.98;5.28;;;461.10;1024.00;;;;;;5071551;28;20027;-73
2022/04/11 13:24:08;;;;;;;7.03;5.70;;;461.00;1049.60;;;;;;5071820;28;20386;-72
2022/04/11 13:26:34;;;;;;;11.98;6.40;;;;;;;;;;5072025;28;20031;-72
2022/04/11 13:29:00;;;;;;;21.73;6.13;;;461.00;1049.60;;;;;;5071856;28;20381;-74
2022/04/11 13:31:27;;;;;;;14.55;8.02;;;461.00;1049.60;;;;;;5072132;28;20031;-74
2022/04/11 13:33:52;;;;;;;12.73;7.43;;;461.30;1100.80;;;;;;5071945;28;20033;-74
2022/04/11 13:36:18;;;;;;;8.73;6.47;;;461.20;1049.60;;;;;;5071933;28;20075;-74
2022/04/11 13:38:44;;;;;;;12.05;6.43;;;;;;;;;;5074793;28;20032;-72
2022/04/11 13:41:10;;;;;;;11.05;5.43;;;;;;;;;;5075826;28;20493;-72
2022/04/11 13:43:37;;;;;;;9.57;5.93;;;;;;;;;;5074518;28;20051;-72
2022/04/11 13:46:03;;;;;;;9.70;6.30;;;;;;;;;;5075702;28;20020;-72
2022/04/11 13:48:29;;;;;;;10.50;6.68;;;461.20;1024.00;;;;;;5075985;28;20040;-73
2022/04/11 13:50:56;;;;;;;7.13;4.30;;;;;;;;;;5075944;28;20052;-73
2022/04/11 13:53:30;;;;;;;10.43;5.72;;;;;;;;;;5075212;28;20028;-73
2022/04/11 13:55:58;;;;;;;28.38;19.77;;;;;;;;;;5075588;28;20035;-72
2022/04/11 13:58:25;;;;;;;10.85;5.35;;;;;;;;;;5075562;28;20542;-73
2022/04/11 14:00:51;;;;;;;13.18;6.80;;;;;;;;;;5075341;28;20082;-72
2022/04/11 14:03:17;;;;;;;10.75;5.50;;;;;;;;;;5075446;28;20031;-72
2022/04/11 14:05:43;;;;;;;12.30;6.75;;;;;;;;;;5075548;28;20021;-72
2022/04/11 14:08:10;;;;;;;11.57;5.82;;;;;;;;;;5073728;28;20479;-73
2022/04/11 14:10:36;;;;;;;23.83;18.98;;;;;;;;;;5075450;28;20039;-73
2022/04/11 14:13:02;;;;;;;18.38;10.80;;;;;;;;;;5075342;28;20135;-73
2022/04/11 14:15:29;;;;;;;13.95;8.45;;;;;;;;;;5075368;28;20051;-73
2022/04/11 14:17:55;;;;;;;15.57;10.15;;;;;;;;;;5075617;28;20104;-73